Time;durP1;ratioP1;P1;durP2;ratioP2;P2;SDS_P1;SDS_P2;PMS_P1;PMS_P2;Temp;Humidity;BMP_temperature;BMP_pressure;BME280_temperature;BME280_humidity;BME280_pressure;Samples;Min_cycle;Max_cycle;Signal;HPM_P1;HPM_P2
2022/08/14 00:02:22;;;;;;;9.48;8.68;;;;;;;19.39;60.37;100687.50;5045768;28;20036;-29
2022/08/14 00:04:47;;;;;;;10.25;9.25;;;;;;;19.38;60.40;100687.56;5043784;28;20107;-30
2022/08/14 00:07:13;;;;;;;11.18;9.45;;;;;;;19.32;60.48;100686.91;5066554;28;20052;-31
2022/08/14 00:09:38;;;;;;;9.80;8.95;;;;;;;19.28;60.80;100684.44;5070377;28;20035;-30
2022/08/14 00:12:05;;;;;;;10.75;9.85;;;;;;;19.27;60.63;100674.69;5047863;28;20056;-31
2022/08/14 00:14:31;;;;;;;11.10;10.18;;;;;;;19.30;61.10;100674.53;5051038;28;20490;-31
2022/08/14 00:16:57;;;;;;;10.82;9.82;;;;;;;19.28;60.66;100671.06;5046840;28;20017;-30
2022/08/14 00:19:22;;;;;;;10.60;9.52;;;;;;;19.27;60.78;100670.19;5044863;28;20025;-31
2022/08/14 00:21:49;;;;;;;10.02;9.23;;;;;;;19.28;61.43;100682.66;5045488;28;20031;-30
2022/08/14 00:24:14;;;;;;;10.25;9.35;;;;;;;19.27;61.10;100677.38;5060580;28;20470;-31
2022/08/14 00:26:40;;;;;;;10.65;9.63;;;;;;;19.27;61.40;100670.19;5056288;28;20035;-30
2022/08/14 00:29:05;;;;;;;9.95;9.05;;;;;;;19.26;61.17;100664.91;5059638;28;20693;-30
2022/08/14 00:31:30;;;;;;;10.02;9.10;;;;;;;19.23;61.29;100674.84;5053656;28;20082;-30
2022/08/14 00:33:59;;;;;;;9.30;8.50;;;;;;;19.17;61.26;100680.44;5059472;28;20075;-30
2022/08/14 00:36:24;;;;;;;9.43;8.63;;;;;;;19.19;61.13;100675.91;5048467;28;20533;-31
2022/08/14 00:38:49;;;;;;;10.80;9.88;;;;;;;19.17;60.80;100671.56;5065223;28;20032;-31
2022/08/14 00:41:16;;;;;;;10.82;9.77;;;;;;;19.13;61.11;100669.94;5067569;28;20032;-30
2022/08/14 00:43:44;;;;;;;10.25;9.25;;;;;;;19.10;60.68;100676.31;5051034;28;20056;-31
2022/08/14 00:46:10;;;;;;;9.88;8.98;;;;;;;19.10;60.57;100677.19;5050237;28;20031;-30
2022/08/14 00:48:36;;;;;;;10.45;9.55;;;;;;;19.06;60.85;100672.91;5043124;28;20385;-31
2022/08/14 00:51:05;;;;;;;11.32;10.27;;;;;;;19.04;61.05;100669.41;5044929;28;20491;-31
2022/08/14 00:53:31;;;;;;;10.68;9.68;;;;;;;19.03;60.85;100670.34;5050583;28;20029;-30
2022/08/14 00:55:57;;;;;;;11.38;10.27;;;;;;;19.00;60.91;100670.47;5052135;28;20035;-30
2022/08/14 00:58:29;;;;;;;10.60;9.75;;;;;;;18.98;60.89;100664.34;5032061;28;20029;-31
2022/08/14 01:00:59;;;;;;;10.77;9.85;;;;;;;18.94;60.97;100670.78;5057673;28;20036;-30
2022/08/14 01:03:26;;;;;;;10.93;9.82;;;;;;;18.93;60.97;100671.69;5052992;28;20504;-30
2022/08/14 01:05:52;;;;;;;10.77;9.88;;;;;;;18.92;61.00;100665.50;5054547;28;20104;-30
2022/08/14 01:08:19;;;;;;;10.35;9.48;;;;;;;18.89;61.13;100673.63;5032246;28;20534;-30
2022/08/14 01:10:51;;;;;;;11.18;10.15;;;;;;;18.88;60.93;100671.03;5049696;28;20041;-31
2022/08/14 01:13:36;;;;;;;12.32;11.25;;;;;;;18.84;61.31;100670.31;5051874;28;20479;-30
2022/08/14 01:16:04;;;;;;;10.57;9.63;;;;;;;18.80;61.33;100672.22;5044089;28;20090;-30
2022/08/14 01:21:15;;;;;;;11.65;10.55;;;;;;;18.75;61.19;100668.03;5050132;28;20091;-30
2022/08/14 01:23:49;;;;;;;11.25;10.25;;;;;;;18.75;61.31;100662.69;5033106;28;20020;-31
2022/08/14 01:26:19;;;;;;;12.20;10.90;;;;;;;18.72;61.32;100658.34;5056724;28;20049;-31
2022/08/14 01:28:45;;;;;;;12.30;11.00;;;;;;;18.67;61.39;100655.03;5053959;28;20404;-31
2022/08/14 01:31:14;;;;;;;11.52;10.45;;;;;;;18.67;61.53;100653.19;5034323;28;20471;-30
2022/08/14 01:33:45;;;;;;;12.35;11.25;;;;;;;18.63;61.16;100664.06;5045448;28;20021;-31
2022/08/14 01:36:12;;;;;;;12.15;10.98;;;;;;;18.61;61.45;100653.50;5048341;28;20466;-30
2022/08/14 01:38:39;;;;;;;11.43;10.43;;;;;;;18.59;61.34;100653.56;5051588;28;20039;-31
2022/08/14 01:41:07;;;;;;;12.52;11.38;;;;;;;18.59;61.66;100653.56;5064192;28;20074;-31
2022/08/14 01:43:42;;;;;;;12.13;10.93;;;;;;;18.54;61.55;100647.53;5055820;28;20501;-31
2022/08/14 01:46:10;;;;;;;12.57;11.48;;;;;;;18.56;61.89;100647.47;5044879;28;20389;-30
2022/08/14 01:48:36;;;;;;;13.60;12.30;;;;;;;18.54;61.69;100650.19;5048360;28;20020;-31
2022/08/14 01:51:02;;;;;;;12.73;11.52;;;;;;;18.50;61.92;100648.59;5040626;28;20018;-30
2022/08/14 01:53:28;;;;;;;12.63;11.52;;;;;;;18.44;61.91;100649.72;5019237;28;20079;-30
2022/08/14 01:55:57;;;;;;;12.48;11.18;;;;;;;18.44;61.86;100638.19;5048557;28;20036;-31
2022/08/14 01:58:26;;;;;;;11.98;10.88;;;;;;;18.41;62.07;100644.50;5043016;28;20033;-31
2022/08/14 02:00:55;;;;;;;11.57;10.57;;;;;;;18.40;61.90;100641.91;5043605;28;20052;-30
2022/08/14 02:03:22;;;;;;;14.07;12.88;;;;;;;18.37;62.13;100642.06;5031830;28;20033;-30
2022/08/14 02:05:48;;;;;;;12.05;11.00;;;;;;;18.37;62.09;100642.91;5059832;28;20474;-31
2022/08/14 02:08:13;;;;;;;12.77;11.63;;;;;;;18.39;62.06;100640.16;5051355;28;20471;-31
2022/08/14 02:10:40;;;;;;;12.68;11.57;;;;;;;18.33;62.09;100638.63;5051432;28;20021;-30
2022/08/14 02:13:06;;;;;;;12.30;11.13;;;;;;;18.32;61.99;100632.44;5040548;28;20037;-30
2022/08/14 02:15:32;;;;;;;12.88;11.73;;;;;;;18.26;62.03;100624.69;5044471;28;20047;-29
2022/08/14 02:18:00;;;;;;;11.80;10.65;;;;;;;18.29;62.30;100629.88;5055122;28;20402;-29
2022/08/14 02:20:33;;;;;;;13.25;12.00;;;;;;;18.26;62.26;100635.34;5047179;28;20434;-29
2022/08/14 02:23:02;;;;;;;13.90;12.45;;;;;;;18.27;62.02;100626.41;5044503;28;20116;-29
2022/08/14 02:25:29;;;;;;;14.07;12.77;;;;;;;18.18;62.51;100627.66;5052556;28;20041;-29
2022/08/14 02:27:55;;;;;;;13.18;11.98;;;;;;;18.21;62.28;100626.69;5050047;28;20059;-29
2022/08/14 02:30:29;;;;;;;13.77;12.48;;;;;;;18.22;62.19;100625.75;5056489;28;20028;-29
2022/08/14 02:32:54;;;;;;;14.02;12.73;;;;;;;18.17;62.50;100622.41;5045683;28;20038;-29
2022/08/14 02:35:20;;;;;;;14.35;13.05;;;;;;;18.14;62.42;100623.38;5049563;28;20024;-29
2022/08/14 02:37:47;;;;;;;14.68;13.25;;;;;;;18.17;62.37;100617.91;5058855;28;20025;-29
2022/08/14 02:40:13;;;;;;;13.05;11.88;;;;;;;18.12;62.42;100619.03;5047607;28;20453;-29
2022/08/14 02:42:39;;;;;;;14.15;12.75;;;;;;;18.09;62.66;100614.72;5050659;28;20021;-29
2022/08/14 02:45:05;;;;;;;13.93;12.63;;;;;;;18.07;62.30;100622.75;5051631;28;20033;-29
2022/08/14 02:48:31;;;;;;;15.23;13.70;;;;;;;18.07;62.58;100619.19;5045381;28;20020;-29
2022/08/14 02:50:57;;;;;;;13.70;12.40;;;;;;;18.02;62.79;100615.88;5060474;28;20029;-29
2022/08/14 02:53:22;;;;;;;14.27;12.98;;;;;;;18.00;62.73;100626.59;5051303;28;20359;-29
2022/08/14 02:55:48;;;;;;;14.10;12.80;;;;;;;17.98;62.52;100619.59;5047280;28;20040;-29
2022/08/14 02:58:13;;;;;;;13.95;12.75;;;;;;;17.93;62.73;100614.44;5051053;28;20040;-29
2022/08/14 03:00:38;;;;;;;12.45;11.35;;;;;;;17.92;62.71;100615.38;5054530;28;20033;-29
2022/08/14 03:03:04;;;;;;;13.10;11.90;;;;;;;17.94;62.26;100608.19;5054569;28;20032;-29
2022/08/14 03:05:29;;;;;;;13.48;12.23;;;;;;;17.89;62.75;100610.16;5049631;28;20409;-29
2022/08/14 03:08:04;;;;;;;13.45;12.20;;;;;;;17.87;62.71;100610.22;5048790;28;20167;-29
2022/08/14 03:10:30;;;;;;;13.70;12.43;;;;;;;17.88;62.62;100611.09;5033369;28;20097;-29
2022/08/14 03:12:56;;;;;;;13.07;11.95;;;;;;;17.81;62.57;100608.66;5051741;28;20478;-28
2022/08/14 03:15:21;;;;;;;14.30;12.48;;;;;;;17.81;62.43;100606.00;5049882;28;20024;-29
2022/08/14 03:17:51;;;;;;;13.90;12.32;;;;;;;17.78;62.36;100613.28;5065361;22;20089;-23
2022/08/14 03:20:17;;;;;;;12.80;11.60;;;;;;;17.78;62.25;100602.59;5071824;28;20032;-24
2022/08/14 03:22:42;;;;;;;13.45;12.15;;;;;;;17.73;62.55;100613.44;5056070;28;20017;-22
2022/08/14 03:25:10;;;;;;;13.57;12.35;;;;;;;17.71;62.59;100612.66;5070401;28;20553;-23
2022/08/14 03:27:36;;;;;;;12.70;11.55;;;;;;;17.69;62.85;100609.16;5080166;28;20029;-23
2022/08/14 03:30:03;;;;;;;13.68;12.38;;;;;;;17.67;62.87;100605.69;5060600;28;20025;-22
2022/08/14 03:32:32;;;;;;;13.77;12.40;;;;;;;17.65;62.85;100597.78;5067109;28;20029;-22
2022/08/14 03:34:58;;;;;;;12.88;11.77;;;;;;;17.66;62.99;100606.63;5059707;28;20029;-23
2022/08/14 03:37:25;;;;;;;13.77;12.38;;;;;;;17.61;63.06;100603.28;5070229;28;20081;-22
2022/08/14 03:39:52;;;;;;;12.25;11.15;;;;;;;17.63;63.23;100609.41;5067751;28;20025;-24
2022/08/14 03:42:17;;;;;;;12.50;11.40;;;;;;;17.56;62.94;100599.00;5060900;28;20493;-23
2022/08/14 03:44:44;;;;;;;13.38;12.18;;;;;;;17.55;63.03;100602.56;5067458;28;20032;-21
2022/08/14 03:47:10;;;;;;;13.52;12.23;;;;;;;17.55;62.66;100599.91;5063186;28;20040;-23
2022/08/14 03:49:36;;;;;;;13.68;12.30;;;;;;;17.52;63.25;100605.38;5065806;28;20017;-22
2022/08/14 03:52:04;;;;;;;13.45;12.25;;;;;;;17.52;63.47;100597.38;5062237;28;20031;-23
2022/08/14 03:54:32;;;;;;;13.30;12.00;;;;;;;17.51;63.36;100590.28;5065261;28;20067;-23
2022/08/14 03:57:01;;;;;;;12.02;10.90;;;;;;;17.49;63.44;100586.84;5072681;28;20502;-22
2022/08/14 03:59:26;;;;;;;13.52;12.32;;;;;;;17.49;63.35;100591.28;5071457;28;20449;-24
2022/08/14 04:01:53;;;;;;;13.27;11.90;;;;;;;17.48;63.65;100592.22;5058568;28;20031;-22
2022/08/14 04:04:18;;;;;;;14.02;12.73;;;;;;;17.48;63.50;100590.44;5053457;28;20586;-24
2022/08/14 04:06:43;;;;;;;13.45;12.05;;;;;;;17.45;63.74;100590.56;5064388;28;20062;-23
2022/08/14 04:09:08;;;;;;;13.15;11.88;;;;;;;17.46;63.51;100586.97;5071633;28;20047;-22
2022/08/14 04:11:53;;;;;;;13.65;12.25;;;;;;;17.43;63.75;100587.06;5067028;28;20474;-22
2022/08/14 04:14:18;;;;;;;12.80;11.60;;;;;;;17.42;63.66;100590.66;5068292;28;20035;-22
2022/08/14 04:16:45;;;;;;;12.77;11.65;;;;;;;17.46;63.96;100592.28;5058764;28;20032;-22
2022/08/14 04:19:10;;;;;;;13.85;12.45;;;;;;;17.46;63.72;100591.41;5056857;28;20447;-23
2022/08/14 04:21:36;;;;;;;14.05;12.68;;;;;;;17.43;64.01;100587.06;5063614;28;20039;-21
2022/08/14 04:24:02;;;;;;;13.07;11.88;;;;;;;17.40;64.16;100577.41;5068300;28;20029;-22
2022/08/14 04:26:29;;;;;;;13.73;12.32;;;;;;;17.45;63.77;100582.56;5065407;28;20035;-22
2022/08/14 04:28:55;;;;;;;12.98;11.75;;;;;;;17.45;63.78;100574.56;5073799;28;20028;-22
2022/08/14 04:31:21;;;;;;;12.55;11.45;;;;;;;17.42;63.75;100572.00;5069917;28;20028;-22
2022/08/14 04:33:47;;;;;;;13.88;12.48;;;;;;;17.41;64.06;100572.94;5072832;28;20535;-21
2022/08/14 04:36:12;;;;;;;12.63;11.52;;;;;;;17.45;63.87;100574.56;5062595;28;20041;-26
2022/08/14 04:44:07;;;;;;;11.93;10.82;;;;;;;17.49;63.48;100559.31;5058640;28;20513;-24
2022/08/14 04:46:33;;;;;;;12.73;11.60;;;;;;;17.51;63.51;100558.31;5054593;28;20032;-25
2022/08/14 04:48:59;;;;;;;13.05;11.85;;;;;;;17.48;63.17;100557.56;5063799;28;20052;-22
2022/08/14 04:51:27;;;;;;;13.23;11.90;;;;;;;17.48;63.56;100546.91;5059448;28;20551;-24
2022/08/14 04:53:53;;;;;;;12.70;11.50;;;;;;;17.55;63.45;100549.25;5055027;28;20052;-22
2022/08/14 04:56:21;;;;;;;13.50;12.20;;;;;;;17.53;63.73;100544.91;5070176;28;20493;-23
2022/08/14 04:58:56;;;;;;;12.55;11.45;;;;;;;17.52;63.81;100549.41;5062612;28;20501;-22
2022/08/14 05:01:22;;;;;;;13.27;11.60;;;;;;;17.53;63.75;100556.47;5045808;28;20067;-23
2022/08/14 05:03:48;;;;;;;12.90;11.60;;;;;;;17.53;63.78;100548.47;5041586;28;20165;-22
2022/08/14 05:06:13;;;;;;;12.23;11.10;;;;;;;17.54;63.97;100546.66;5064803;28;20027;-22
2022/08/14 05:08:39;;;;;;;12.63;11.38;;;;;;;17.57;63.83;100547.41;5067989;28;20393;-22
2022/08/14 05:11:06;;;;;;;12.75;11.55;;;;;;;17.59;63.81;100542.00;5057107;28;20094;-25
2022/08/14 05:13:33;;;;;;;13.27;12.07;;;;;;;17.64;64.15;100547.16;5068082;28;20393;-22
2022/08/14 05:16:00;;;;;;;12.20;11.10;;;;;;;17.63;64.06;100540.06;5070770;28;20068;-22
2022/08/14 05:18:33;;;;;;;11.30;10.30;;;;;;;17.62;63.77;100538.34;5060113;28;20597;-22
2022/08/14 05:21:01;;;;;;;12.27;11.13;;;;;;;17.73;64.20;100546.78;5056482;28;20033;-22
2022/08/14 05:23:28;;;;;;;12.82;11.57;;;;;;;17.71;63.83;100543.31;5055234;28;20093;-22
2022/08/14 05:25:59;;;;;;;12.80;11.60;;;;;;;17.75;64.09;100539.59;5063139;28;20028;-23
2022/08/14 05:28:26;;;;;;;12.75;11.55;;;;;;;17.78;63.99;100535.91;5069303;28;20025;-22
2022/08/14 05:30:54;;;;;;;14.18;11.23;;;;;;;17.77;63.79;100532.38;5063735;28;20025;-22
2022/08/14 05:33:23;;;;;;;12.93;11.07;;;;;;;17.76;63.54;100530.66;5057951;28;20410;-22
2022/08/14 05:35:50;;;;;;;12.27;11.20;;;;;;;17.81;63.71;100544.66;5039426;28;20098;-22
2022/08/14 05:38:18;;;;;;;13.90;12.60;;;;;;;17.86;64.64;100532.91;5057935;28;20020;-22
2022/08/14 05:40:45;;;;;;;12.48;11.32;;;;;;;17.86;63.49;100530.25;5064229;28;20028;-24
2022/08/14 05:43:13;;;;;;;12.25;11.18;;;;;;;17.90;63.34;100534.53;5062347;28;20479;-22
2022/08/14 05:45:38;;;;;;;12.32;11.02;;;;;;;17.92;63.26;100524.66;5053347;28;20490;-23
2022/08/14 05:48:05;;;;;;;11.63;10.63;;;;;;;17.97;63.35;100525.31;5056358;28;20107;-22
2022/08/14 05:50:32;;;;;;;12.93;11.73;;;;;;;18.05;64.12;100519.69;5043321;28;20398;-22
2022/08/14 05:52:57;;;;;;;12.25;11.23;;;;;;;18.05;63.92;100515.22;5052215;28;20509;-22
2022/08/14 05:55:22;;;;;;;12.27;11.15;;;;;;;18.05;63.31;100525.88;5060977;28;20127;-22
2022/08/14 05:57:58;;;;;;;12.88;11.57;;;;;;;18.11;63.67;100510.56;5067378;28;20024;-22
2022/08/14 06:00:28;;;;;;;12.65;11.55;;;;;;;18.13;66.64;100514.91;5035169;28;20030;-22
2022/08/14 06:02:55;;;;;;;12.45;11.35;;;;;;;18.16;64.49;100516.56;5062060;28;20389;-22
2022/08/14 06:05:21;;;;;;;12.43;11.23;;;;;;;18.25;64.80;100513.50;5058998;28;20398;-22
2022/08/14 06:07:46;;;;;;;12.65;11.35;;;;;;;18.27;63.47;100508.09;5041846;28;20058;-22
2022/08/14 06:10:11;;;;;;;11.27;10.27;;;;;;;18.33;63.85;100503.34;5060645;28;20032;-23
2022/08/14 06:12:37;;;;;;;11.90;10.85;;;;;;;18.39;63.11;100491.53;5062250;28;20063;-24
2022/08/14 06:15:04;;;;;;;11.38;10.35;;;;;;;18.53;63.19;100496.25;5061188;28;20020;-22
2022/08/14 06:17:30;;;;;;;12.25;11.18;;;;;;;18.61;62.88;100495.03;5057811;28;20029;-22
2022/08/14 06:19:55;;;;;;;12.65;11.45;;;;;;;18.68;63.16;100496.47;5056996;28;20043;-22
2022/08/14 06:22:22;;;;;;;12.27;11.18;;;;;;;18.75;62.77;100495.25;5055152;28;20028;-22
2022/08/14 06:24:47;;;;;;;12.38;11.18;;;;;;;18.83;63.10;100486.88;5067869;28;20063;-22
2022/08/14 06:27:12;;;;;;;13.93;12.55;;;;;;;18.91;63.25;100486.53;5065898;28;20115;-22
2022/08/14 06:29:38;;;;;;;12.70;11.50;;;;;;;19.01;63.33;100492.31;5054771;28;20067;-22
2022/08/14 06:32:04;;;;;;;13.60;12.32;;;;;;;19.10;63.48;100492.75;5059844;28;20083;-22
2022/08/14 06:34:29;;;;;;;14.27;12.88;;;;;;;19.21;63.54;100499.41;5058321;28;20033;-22
2022/08/14 06:36:55;;;;;;;13.60;12.40;;;;;;;19.33;63.07;100496.13;5051837;28;20028;-22
2022/08/14 06:39:24;;;;;;;12.45;11.38;;;;;;;19.44;62.39;100500.09;5059678;28;20513;-23
2022/08/14 06:41:49;;;;;;;13.43;12.15;;;;;;;19.57;62.78;100486.97;5056488;28;20406;-22
2022/08/14 06:44:14;;;;;;;13.00;11.75;;;;;;;19.66;63.31;100488.31;5058777;28;20029;-24
2022/08/14 06:46:40;;;;;;;13.68;12.43;;;;;;;19.73;63.64;100484.38;5062018;28;20048;-24
2022/08/14 06:49:05;;;;;;;13.20;11.95;;;;;;;19.82;63.58;100483.91;5070118;28;20437;-24
2022/08/14 06:51:32;;;;;;;13.13;11.68;;;;;;;19.95;62.91;100488.63;5073214;28;20470;-24
2022/08/14 06:53:57;;;;;;;12.75;11.65;;;;;;;20.07;62.81;100485.34;5075468;28;20032;-24
2022/08/14 06:56:23;;;;;;;13.00;11.70;;;;;;;20.19;62.44;100475.81;5058637;28;20126;-24
2022/08/14 06:58:48;;;;;;;13.95;12.55;;;;;;;20.30;62.23;100469.03;5050994;28;20106;-24
2022/08/14 07:06:42;;;;;;;13.38;12.27;;;;;;;20.65;62.61;100466.25;5065244;28;20036;-24
2022/08/14 07:09:10;;;;;;;12.65;11.32;;;;;;;20.71;62.88;100465.03;5067251;28;20025;-24
2022/08/14 07:11:37;;;;;;;14.25;13.05;;;;;;;20.81;63.46;100466.25;5067115;28;20032;-24
2022/08/14 07:14:03;;;;;;;15.10;12.90;;;;;;;20.91;63.68;100472.00;5061834;28;20028;-24
2022/08/14 07:16:29;;;;;;;14.57;13.15;;;;;;;21.00;63.16;100466.13;5063680;28;20024;-24
2022/08/14 07:18:55;;;;;;;13.63;12.27;;;;;;;21.15;62.68;100466.22;5054892;28;20036;-24
2022/08/14 07:21:39;;;;;;;14.85;13.30;;;;;;;21.20;63.72;100460.59;5060545;28;20028;-24
2022/08/14 07:24:04;;;;;;;13.32;12.13;;;;;;;21.32;64.03;100457.19;5064676;28;20028;-23
2022/08/14 07:26:29;;;;;;;14.80;13.23;;;;;;;21.53;63.17;100464.94;5063923;28;20073;-24
2022/08/14 07:28:55;;;;;;;15.00;13.15;;;;;;;21.66;63.50;100457.03;5062122;28;20040;-24
2022/08/14 07:31:20;;;;;;;14.02;12.43;;;;;;;21.76;63.76;100452.88;5054637;28;20031;-23
2022/08/14 07:33:47;;;;;;;13.95;12.75;;;;;;;21.89;63.57;100455.69;5064468;28;20032;-24
2022/08/14 07:36:14;;;;;;;15.40;13.70;;;;;;;22.00;63.96;100462.19;5072276;28;20025;-24
2022/08/14 07:38:43;;;;;;;15.38;13.88;;;;;;;22.19;63.49;100464.63;5073237;28;20020;-24
2022/08/14 07:41:11;;;;;;;14.73;13.32;;;;;;;22.35;63.05;100459.19;5074519;28;20560;-24
2022/08/14 07:43:37;;;;;;;14.43;12.65;;;;;;;22.47;63.43;100462.06;5071815;28;20035;-24
2022/08/14 07:46:03;;;;;;;13.52;12.20;;;;;;;22.61;62.41;100451.31;5066790;28;20499;-24
2022/08/14 07:48:28;;;;;;;14.38;12.93;;;;;;;22.76;63.12;100451.28;5062308;28;20037;-24
2022/08/14 07:50:54;;;;;;;22.85;13.27;;;;;;;22.84;62.82;100454.34;5065402;28;20359;-24
2022/08/14 07:53:20;;;;;;;13.75;12.32;;;;;;;23.00;62.33;100448.84;5062370;28;20113;-24
2022/08/14 07:55:46;;;;;;;13.50;12.18;;;;;;;23.12;62.57;100457.94;5066079;28;20025;-23
2022/08/14 07:58:12;;;;;;;14.23;12.88;;;;;;;23.27;62.79;100445.28;5061313;28;20541;-24
2022/08/14 08:00:38;;;;;;;13.90;12.52;;;;;;;23.40;62.37;100445.38;5054684;28;20084;-24
2022/08/14 08:03:07;;;;;;;13.52;12.13;;;;;;;23.51;61.27;100446.47;5061115;28;20021;-22
2022/08/14 08:05:33;;;;;;;13.13;11.97;;;;;;;23.59;61.86;100449.50;5061040;28;20029;-24
2022/08/14 08:07:58;;;;;;;14.60;11.30;;;;;;;23.67;62.10;100449.84;5071946;28;20493;-24
2022/08/14 08:10:32;;;;;;;15.10;12.95;;;;;;;23.83;61.79;100446.97;5054858;28;20039;-24
2022/08/14 08:13:07;;;;;;;17.17;13.18;;;;;;;24.03;61.54;100455.50;5057961;28;20087;-24
2022/08/14 08:15:39;;;;;;;14.25;12.75;;;;;;;24.19;61.49;100455.31;5061487;28;20391;-24
2022/08/14 08:18:07;;;;;;;13.75;12.25;;;;;;;24.33;60.69;100440.00;5052628;28;20028;-24
2022/08/14 08:20:35;;;;;;;13.55;11.13;;;;;;;24.53;59.90;100445.78;5062022;28;20020;-24
2022/08/14 08:23:03;;;;;;;14.02;12.15;;;;;;;24.66;60.33;100448.47;5066767;28;20048;-24
2022/08/14 08:25:31;;;;;;;13.80;12.30;;;;;;;24.77;59.62;100451.22;5071362;28;20036;-24
2022/08/14 08:27:58;;;;;;;13.18;11.88;;;;;;;24.94;59.32;100441.94;5052460;28;20036;-24
2022/08/14 08:30:24;;;;;;;13.90;12.00;;;;;;;25.08;59.61;100442.75;5066426;28;20107;-24
2022/08/14 08:32:51;;;;;;;13.30;12.00;;;;;;;25.21;59.06;100440.84;5059534;28;20117;-24
2022/08/14 08:35:25;;;;;;;12.05;10.85;;;;;;;25.36;58.92;100443.38;5055164;28;20032;-24
2022/08/14 08:38:08;;;;;;;12.02;10.93;;;;;;;25.51;58.12;100444.06;5053634;28;20021;-24
2022/08/14 08:40:35;;;;;;;12.98;11.63;;;;;;;25.68;58.56;100442.81;5061805;28;20036;-24
2022/08/14 08:43:05;;;;;;;12.27;10.93;;;;;;;25.83;58.24;100434.47;5065500;28;20025;-24
2022/08/14 08:45:30;;;;;;;;;;;;;;;25.95;57.43;100433.53;5066184;28;20029;-24
2022/08/14 08:47:56;;;;;;;12.18;10.52;;;;;;;26.12;57.32;100437.59;5064857;28;19924;-24
2022/08/14 08:50:32;;;;;;;12.88;11.50;;;;;;;26.25;56.58;100420.41;5073718;28;20024;-24
2022/08/14 08:53:11;;;;;;;21.98;13.82;;;;;;;26.38;56.33;100423.03;5066269;28;20077;-24
2022/08/14 08:55:41;;;;;;;16.90;11.52;;;;;;;26.58;56.42;100416.00;5062879;28;21266;-24
2022/08/14 08:58:13;;;;;;;13.15;11.68;;;;;;;26.75;56.01;100411.88;5061837;28;20099;-24
2022/08/14 09:00:40;;;;;;;12.48;11.00;;;;;;;26.85;55.58;100411.16;5051870;28;20094;-24
2022/08/14 09:03:14;;;;;;;13.48;10.90;;;;;;;26.86;55.10;100405.63;5061634;28;20021;-24
2022/08/14 09:06:01;;;;;;;13.20;10.70;;;;;;;27.08;54.99;100411.97;5061943;28;20048;-24
2022/08/14 09:08:29;;;;;;;12.82;11.57;;;;;;;27.25;54.97;100402.44;5064734;28;20482;-24
2022/08/14 09:10:58;;;;;;;11.40;10.20;;;;;;;27.38;54.47;100407.66;5070093;28;20119;-24
2022/08/14 09:13:27;;;;;;;11.93;10.75;;;;;;;27.60;54.14;100404.94;5055322;28;20491;-24
2022/08/14 09:15:54;;;;;;;12.35;11.15;;;;;;;27.81;53.96;100393.28;5062790;28;20372;-24
2022/08/14 09:20:51;;;;;;;14.57;11.65;;;;;;;27.99;53.20;100388.09;5048755;28;20111;-31
2022/08/14 09:23:17;;;;;;;14.50;12.00;;;;;;;28.10;52.92;100379.88;5065095;28;20032;-31
2022/08/14 09:25:44;;;;;;;12.27;11.02;;;;;;;28.25;52.83;100376.81;5057566;28;20086;-28
2022/08/14 09:28:12;;;;;;;12.48;11.15;;;;;;;28.33;52.59;100379.72;5053016;28;20027;-29
2022/08/14 09:30:52;;;;;;;14.80;11.23;;;;;;;28.51;51.84;100382.63;5047352;28;20029;-28
2022/08/14 09:34:09;;;;;;;12.32;11.07;;;;;;;28.64;51.27;100381.53;5038920;28;20036;-29
2022/08/14 09:36:43;;;;;;;11.05;10.10;;;;;;;28.66;51.19;100383.09;5004231;28;20045;-29
2022/08/14 09:39:37;;;;;;;11.35;10.20;;;;;;;28.75;50.46;100378.69;5013486;28;20030;-28
2022/08/14 09:42:27;;;;;;;12.10;10.88;;;;;;;28.89;51.06;100368.41;5026639;28;20025;-30
2022/08/14 09:45:03;;;;;;;11.68;10.55;;;;;;;29.04;50.54;100372.44;5033693;28;20486;-28
2022/08/14 09:47:52;;;;;;;11.93;10.70;;;;;;;29.19;50.40;100363.88;5047845;28;20474;-30
2022/08/14 09:50:22;;;;;;;14.18;11.07;;;;;;;29.30;50.13;100366.44;5032737;28;20029;-28
2022/08/14 09:52:52;;;;;;;12.15;10.25;;;;;;;29.37;49.70;100360.44;5028661;28;20474;-29
2022/08/14 09:55:19;;;;;;;12.63;10.45;;;;;;;29.47;50.06;100360.41;5024414;28;20025;-30
2022/08/14 09:57:45;;;;;;;15.75;10.40;;;;;;;29.50;49.51;100344.69;5041319;28;20437;-29
2022/08/14 10:00:15;;;;;;;19.38;11.80;;;;;;;29.49;49.55;100359.25;5032075;28;20025;-30
2022/08/14 10:02:51;;;;;;;19.50;11.45;;;;;;;29.46;49.40;100348.69;5032309;28;20037;-30
2022/08/14 10:05:28;;;;;;;19.85;11.75;;;;;;;29.55;49.21;100345.16;5030520;28;20112;-29
2022/08/14 10:07:53;;;;;;;21.75;10.68;;;;;;;29.77;48.20;100345.78;5027089;28;20066;-29
2022/08/14 10:10:37;;;;;;;20.05;11.32;;;;;;;29.90;47.73;100342.72;5034268;28;20033;-29
2022/08/14 10:13:04;;;;;;;12.60;10.10;;;;;;;29.93;47.08;100333.41;5028962;28;20120;-30
2022/08/14 10:15:31;;;;;;;13.52;9.57;;;;;;;29.97;46.23;100329.38;5031092;28;20033;-30
2022/08/14 10:18:09;;;;;;;12.82;9.85;;;;;;;30.11;47.26;100325.34;5026477;28;20035;-30
2022/08/14 10:20:59;;;;;;;10.20;9.30;;;;;;;30.08;44.90;100321.03;5032527;28;20106;-30
2022/08/14 10:23:43;;;;;;;10.38;9.38;;;;;;;30.43;43.69;100323.16;5031361;28;20055;-30
2022/08/14 10:26:09;;;;;;;10.52;9.32;;;;;;;30.29;44.39;100322.69;5035396;28;20538;-27
2022/08/14 10:28:45;;;;;;;11.70;8.85;;;;;;;30.32;45.38;100322.41;5029578;28;20095;-29
2022/08/14 10:31:33;;;;;;;11.82;9.27;;;;;;;30.43;45.65;100312.28;5039447;28;20041;-30
2022/08/14 10:34:00;;;;;;;13.07;9.25;;;;;;;30.47;45.08;100309.09;5032547;28;20033;-30
2022/08/14 10:36:31;;;;;;;13.52;9.43;;;;;;;30.57;45.39;100297.28;5035842;28;20021;-29
2022/08/14 10:38:57;;;;;;;14.60;10.75;;;;;;;30.66;45.77;100290.06;5050696;28;20026;-30
2022/08/14 10:41:34;;;;;;;18.30;9.57;;;;;;;30.67;45.20;100299.97;5032994;28;20018;-29
2022/08/14 10:44:09;;;;;;;9.75;8.75;;;;;;;30.76;44.70;100300.91;5031035;28;20029;-28
2022/08/14 10:46:43;;;;;;;10.30;8.57;;;;;;;30.87;44.25;100302.56;5032758;28;20032;-28
2022/08/14 10:49:21;;;;;;;10.93;9.02;;;;;;;30.99;43.95;100287.69;5034825;28;20466;-28
2022/08/14 10:52:07;;;;;;;9.00;8.10;;;;;;;31.05;43.92;100295.22;5044058;28;20081;-28
2022/08/14 10:54:38;;;;;;;8.95;8.10;;;;;;;31.16;43.00;100302.28;5029514;28;20029;-27
2022/08/14 10:57:20;;;;;;;10.38;7.90;;;;;;;31.26;43.25;100287.69;5032750;28;20125;-27
2022/08/14 10:59:57;;;;;;;12.30;8.30;;;;;;;31.28;43.14;100294.72;5053105;28;20056;-27
2022/08/14 11:02:29;;;;;;;9.13;8.32;;;;;;;31.36;43.25;100291.19;5034373;28;20035;-28
2022/08/14 11:05:10;;;;;;;9.02;8.07;;;;;;;31.38;42.76;100277.44;5041194;28;20037;-28
2022/08/14 11:07:39;;;;;;;9.50;8.52;;;;;;;31.27;41.67;100265.75;5040328;28;20064;-28
2022/08/14 11:10:11;;;;;;;8.35;7.60;;;;;;;31.34;42.54;100266.84;5042001;28;20080;-28
2022/08/14 11:12:45;;;;;;;8.52;7.18;;;;;;;31.45;42.72;100273.03;5035591;28;20490;-28
2022/08/14 11:15:20;;;;;;;13.32;8.40;;;;;;;31.51;42.12;100268.81;5032039;28;20470;-28
2022/08/14 11:17:47;;;;;;;16.75;8.98;;;;;;;31.56;42.68;100264.59;5047251;28;20374;-28
2022/08/14 11:20:18;;;;;;;10.10;8.45;;;;;;;31.58;41.53;100267.16;5033878;28;20037;-29
2022/08/14 11:22:45;;;;;;;8.52;7.53;;;;;;;31.61;41.08;100259.50;5035744;28;20018;-29
2022/08/14 11:25:13;;;;;;;11.32;8.40;;;;;;;31.59;41.63;100258.81;5035612;28;20115;-29
2022/08/14 11:27:43;;;;;;;12.10;8.95;;;;;;;31.66;41.91;100261.75;5015242;28;20052;-29
2022/08/14 11:30:21;;;;;;;13.13;9.13;;;;;;;31.69;42.25;100260.56;5036129;28;20049;-29
2022/08/14 11:32:48;;;;;;;17.00;10.27;;;;;;;31.69;42.34;100261.44;5034090;28;20381;-29
2022/08/14 11:35:18;;;;;;;19.13;10.68;;;;;;;31.71;42.34;100250.38;5037308;28;20052;-29
2022/08/14 11:37:48;;;;;;;16.80;10.07;;;;;;;31.71;41.89;100251.19;5035449;28;20021;-29